createdAt,value
2022-12-04T00:01:08.816Z,99180.00
2022-12-04T00:04:06.834Z,99180.80
2022-12-04T00:07:04.291Z,99178.40
2022-12-04T00:10:01.730Z,99179.40
2022-12-04T00:12:59.669Z,99180.00
2022-12-04T00:15:57.302Z,99178.40
2022-12-04T00:18:54.778Z,99174.40
2022-12-04T00:21:52.223Z,99183.20
2022-12-04T00:24:49.672Z,99181.00
2022-12-04T00:27:47.087Z,99184.40
2022-12-04T00:30:45.025Z,99181.40
2022-12-04T00:33:42.481Z,99179.60
2022-12-04T00:36:39.940Z,99180.80
2022-12-04T00:39:37.374Z,99184.60
2022-12-04T00:42:34.818Z,99188.20
2022-12-04T00:45:32.321Z,99190.60
2022-12-04T00:48:29.848Z,99187.80
2022-12-04T00:51:27.287Z,99187.80
2022-12-04T00:54:24.735Z,99183.60
2022-12-04T00:57:22.210Z,99195.20
2022-12-04T01:00:19.740Z,99202.80
2022-12-04T01:03:17.284Z,99204.00
2022-12-04T01:06:14.852Z,99202.00
2022-12-04T01:09:12.312Z,99192.80
2022-12-04T01:12:09.788Z,99190.60
2022-12-04T01:15:07.241Z,99192.20
2022-12-04T01:18:04.730Z,99194.20
2022-12-04T01:21:02.204Z,99197.40
2022-12-04T01:24:00.021Z,99189.80
2022-12-04T01:26:57.470Z,99182.20
2022-12-04T01:29:55.209Z,99176.00
2022-12-04T01:32:52.805Z,99168.80
2022-12-04T01:35:50.256Z,99166.60
2022-12-04T01:38:47.723Z,99168.20
2022-12-04T01:41:45.168Z,99168.60
2022-12-04T01:44:42.621Z,99171.00
2022-12-04T01:47:40.097Z,99176.80
2022-12-04T01:50:37.521Z,99174.00
2022-12-04T01:53:35.018Z,99176.60
2022-12-04T01:56:32.445Z,99181.20
2022-12-04T01:59:29.918Z,99181.60
2022-12-04T02:02:27.625Z,99190.00
2022-12-04T02:05:25.245Z,99181.60
2022-12-04T02:08:22.695Z,99183.40
2022-12-04T02:11:20.134Z,99180.00
2022-12-04T02:14:17.607Z,99174.40
2022-12-04T02:17:15.055Z,99164.80
2022-12-04T02:20:12.522Z,99166.20
2022-12-04T02:23:09.954Z,99168.20
2022-12-04T02:26:07.397Z,99173.40
2022-12-04T02:29:04.859Z,99172.80
2022-12-04T02:32:02.318Z,99174.00
2022-12-04T02:34:59.784Z,99178.20
2022-12-04T02:37:57.243Z,99183.60
2022-12-04T02:40:54.706Z,99184.40
2022-12-04T02:43:52.200Z,99177.40
2022-12-04T02:46:49.685Z,99167.40
2022-12-04T02:49:47.185Z,99160.00
2022-12-04T02:52:44.666Z,99159.60
2022-12-04T02:55:42.127Z,99158.80
2022-12-04T02:58:39.563Z,99158.40
2022-12-04T03:01:37.084Z,99163.00
2022-12-04T03:04:34.662Z,99161.60
2022-12-04T03:07:32.181Z,99158.00
2022-12-04T03:10:29.656Z,99161.40
2022-12-04T03:13:27.165Z,99158.40
2022-12-04T03:16:24.689Z,99157.40
2022-12-04T03:19:22.172Z,99150.20
2022-12-04T03:22:19.649Z,99151.80
2022-12-04T03:25:17.124Z,99157.00
2022-12-04T03:28:14.582Z,99168.20
2022-12-04T03:31:12.109Z,99172.00
2022-12-04T03:34:09.610Z,99170.00
2022-12-04T03:37:07.076Z,99171.00
2022-12-04T03:40:04.568Z,99163.80
2022-12-04T03:43:02.022Z,99157.40
2022-12-04T03:45:59.913Z,99151.60
2022-12-04T03:48:57.496Z,99149.00
2022-12-04T03:51:54.954Z,99150.80
2022-12-04T03:54:52.401Z,99157.80
2022-12-04T03:57:49.842Z,99162.60
2022-12-04T04:00:47.320Z,99161.00
2022-12-04T04:03:44.779Z,99158.60
2022-12-04T04:06:42.250Z,99152.20
2022-12-04T04:09:39.665Z,99149.40
2022-12-04T04:12:37.186Z,99150.80
2022-12-04T04:15:52.375Z,99154.60
2022-12-04T04:19:15.654Z,99147.20
2022-12-04T04:22:30.581Z,99145.20
2022-12-04T04:25:28.044Z,99138.00
2022-12-04T04:28:25.514Z,99134.20
2022-12-04T04:31:23.068Z,99136.40
2022-12-04T04:34:21.088Z,99132.60
2022-12-04T04:37:18.553Z,99134.60
2022-12-04T04:40:15.990Z,99139.60
2022-12-04T04:43:13.453Z,99144.40
2022-12-04T04:46:10.987Z,99135.00
2022-12-04T04:49:08.472Z,99134.20
2022-12-04T04:52:05.931Z,99134.20
2022-12-04T04:55:03.395Z,99144.40
2022-12-04T04:58:00.893Z,99142.80
2022-12-04T05:00:58.353Z,99136.40
2022-12-04T05:03:55.819Z,99128.20
2022-12-04T05:06:53.266Z,99135.60
2022-12-04T05:09:50.728Z,99132.80
2022-12-04T05:12:48.162Z,99136.60
2022-12-04T05:15:45.721Z,99138.60
2022-12-04T05:19:03.730Z,99129.40
2022-12-04T05:22:01.207Z,99132.40
2022-12-04T05:24:58.685Z,99127.00
2022-12-04T05:27:56.143Z,99131.20
2022-12-04T05:30:53.667Z,99138.80
2022-12-04T05:33:51.137Z,99137.20
2022-12-04T05:36:48.610Z,99133.60
2022-12-04T05:39:46.054Z,99137.20
2022-12-04T05:42:43.533Z,99141.60
2022-12-04T05:45:41.005Z,99135.60
2022-12-04T05:48:38.466Z,99142.40
2022-12-04T05:51:35.929Z,99141.80
2022-12-04T05:54:33.393Z,99137.80
2022-12-04T05:57:30.969Z,99142.80
2022-12-04T06:00:28.530Z,99144.60
2022-12-04T06:03:26.107Z,99144.00
2022-12-04T06:06:23.571Z,99143.40
2022-12-04T06:09:21.026Z,99150.00
2022-12-04T06:12:18.505Z,99148.60
2022-12-04T06:15:16.002Z,99156.40
2022-12-04T06:18:13.483Z,99157.00
2022-12-04T06:21:10.942Z,99157.40
2022-12-04T06:24:08.421Z,99154.40
2022-12-04T06:30:23.349Z,99149.60
2022-12-04T06:33:20.799Z,99153.20
2022-12-04T06:36:18.240Z,99157.80
2022-12-04T06:39:18.967Z,99168.00
2022-12-04T06:42:16.710Z,99162.20
2022-12-04T06:45:14.177Z,99159.60
2022-12-04T06:48:11.681Z,99163.00
2022-12-04T06:51:09.131Z,99167.00
2022-12-04T06:54:06.585Z,99164.40
2022-12-04T06:57:04.021Z,99164.80
2022-12-04T07:00:01.528Z,99165.20
2022-12-04T07:02:59.028Z,99168.00
2022-12-04T07:05:56.514Z,99177.40
2022-12-04T07:08:53.976Z,99187.20
2022-12-04T07:11:51.457Z,99194.20
2022-12-04T07:14:48.945Z,99197.20
2022-12-04T07:17:46.400Z,99190.80
2022-12-04T07:20:43.881Z,99183.40
2022-12-04T07:23:41.328Z,99189.20
2022-12-04T07:26:38.784Z,99192.40
2022-12-04T07:29:36.255Z,99188.80
2022-12-04T07:32:33.714Z,99180.80
2022-12-04T07:35:31.179Z,99185.20
2022-12-04T07:38:28.632Z,99185.00
2022-12-04T07:41:26.508Z,99191.80
2022-12-04T07:44:23.997Z,99186.40
2022-12-04T07:47:21.424Z,99185.00
2022-12-04T07:50:18.882Z,99181.80
2022-12-04T07:53:16.337Z,99190.80
2022-12-04T07:56:13.800Z,99196.20
2022-12-04T07:59:11.249Z,99195.20
2022-12-04T08:02:08.745Z,99192.00
2022-12-04T08:05:06.193Z,99191.60
2022-12-04T08:08:03.662Z,99191.80
2022-12-04T08:11:01.181Z,99190.40
2022-12-04T08:13:58.963Z,99194.80
2022-12-04T08:16:56.455Z,99194.80
2022-12-04T08:19:54.275Z,99188.60
2022-12-04T08:22:52.100Z,99184.40
2022-12-04T08:25:49.565Z,99183.60
2022-12-04T08:28:47.017Z,99179.80
2022-12-04T08:31:44.522Z,99180.20
2022-12-04T08:34:41.977Z,99179.40
2022-12-04T08:37:39.459Z,99173.20
2022-12-04T08:40:36.935Z,99188.00
2022-12-04T08:43:34.399Z,99177.20
2022-12-04T08:46:31.926Z,99187.00
2022-12-04T08:49:29.465Z,99199.60
2022-12-04T08:52:27.012Z,99199.40
2022-12-04T08:55:24.455Z,99194.20
2022-12-04T08:58:21.937Z,99205.40
2022-12-04T09:01:19.568Z,99206.20
2022-12-04T09:04:18.090Z,99198.60
2022-12-04T09:07:16.143Z,99209.80
2022-12-04T09:10:17.088Z,99207.80
2022-12-04T09:13:15.340Z,99198.40
2022-12-04T09:16:13.930Z,99195.00
2022-12-04T09:19:15.115Z,99192.80
2022-12-04T09:22:40.495Z,99194.40
2022-12-04T09:25:45.101Z,99202.80
2022-12-04T09:28:43.129Z,99201.60
2022-12-04T09:31:41.007Z,99191.60
2022-12-04T09:34:40.449Z,99188.60
2022-12-04T09:37:39.399Z,99186.20
2022-12-04T09:40:38.360Z,99185.40
2022-12-04T09:43:37.539Z,99188.60
2022-12-04T09:46:37.256Z,99191.00
2022-12-04T09:49:36.019Z,99187.00
2022-12-04T09:52:34.570Z,99192.20
2022-12-04T09:55:35.434Z,99187.00
2022-12-04T09:58:33.858Z,99187.60
2022-12-04T10:01:32.253Z,99184.40
2022-12-04T10:04:30.625Z,99187.80
2022-12-04T10:07:29.524Z,99182.80
2022-12-04T10:10:27.580Z,99176.60
2022-12-04T10:13:26.010Z,99167.40
2022-12-04T10:16:25.027Z,99174.60
2022-12-04T10:19:25.296Z,99169.00
2022-12-04T10:22:23.777Z,99169.80
2022-12-04T10:25:22.251Z,99173.80
2022-12-04T10:28:20.289Z,99159.20
2022-12-04T10:31:18.344Z,99150.60
2022-12-04T10:34:15.874Z,99154.60
2022-12-04T10:37:13.448Z,99151.20
2022-12-04T10:40:10.928Z,99156.00
2022-12-04T10:43:08.392Z,99159.00
2022-12-04T10:46:05.891Z,99154.60
2022-12-04T10:49:05.104Z,99147.60
2022-12-04T10:52:02.570Z,99147.40
2022-12-04T10:55:00.181Z,99150.00
2022-12-04T10:57:57.670Z,99153.60
2022-12-04T11:00:55.156Z,99147.40
2022-12-04T11:03:52.629Z,99145.40
2022-12-04T11:06:51.135Z,99147.20
2022-12-04T11:09:48.597Z,99147.40
2022-12-04T11:12:46.060Z,99148.60
2022-12-04T11:15:43.596Z,99137.60
2022-12-04T11:18:41.105Z,99132.20
2022-12-04T11:21:39.007Z,99130.20
2022-12-04T11:24:37.251Z,99124.60
2022-12-04T11:27:36.701Z,99115.00
2022-12-04T11:30:34.740Z,99110.40
2022-12-04T11:33:34.774Z,99113.80
2022-12-04T11:36:33.239Z,99104.80
2022-12-04T11:39:32.831Z,99105.00
2022-12-04T11:42:31.421Z,99100.80
2022-12-04T11:45:31.616Z,99097.60
2022-12-04T11:48:30.141Z,99094.20
2022-12-04T11:51:31.466Z,99087.40
2022-12-04T11:54:30.198Z,99085.20
2022-12-04T11:57:28.281Z,99088.40
2022-12-04T12:00:28.106Z,99089.60
2022-12-04T12:03:25.971Z,99087.80
2022-12-04T12:06:23.604Z,99087.40
2022-12-04T12:09:21.123Z,99083.00
2022-12-04T12:12:19.577Z,99087.80
2022-12-04T12:15:17.025Z,99081.80
2022-12-04T12:18:17.724Z,99084.40
2022-12-04T12:21:19.195Z,99080.00
2022-12-04T12:24:16.764Z,99086.40
2022-12-04T12:27:16.420Z,99084.00
2022-12-04T12:30:14.531Z,99077.40
2022-12-04T12:33:12.307Z,99077.60
2022-12-04T12:36:09.998Z,99078.60
2022-12-04T12:39:08.278Z,99064.80
2022-12-04T12:42:06.779Z,99063.40
2022-12-04T12:45:06.044Z,99055.20
2022-12-04T12:48:04.968Z,99058.20
2022-12-04T12:51:21.937Z,99059.20
2022-12-04T12:54:21.801Z,99058.00
2022-12-04T12:57:19.903Z,99056.60
2022-12-04T13:00:21.465Z,99049.80
2022-12-04T13:03:20.144Z,99052.00
2022-12-04T13:06:18.130Z,99053.20
2022-12-04T13:09:16.291Z,99050.20
2022-12-04T13:12:14.111Z,99055.80
2022-12-04T13:15:11.664Z,99059.20
2022-12-04T13:18:09.179Z,99063.60
2022-12-04T13:21:06.732Z,99059.80
2022-12-04T13:24:04.210Z,99064.40
2022-12-04T13:27:01.983Z,99060.20
2022-12-04T13:29:59.634Z,99060.20
2022-12-04T13:32:57.108Z,99053.00
2022-12-04T13:35:54.569Z,99051.00
2022-12-04T13:38:57.701Z,99052.60
2022-12-04T13:41:55.685Z,99056.40
2022-12-04T13:44:53.174Z,99060.00
2022-12-04T13:47:50.619Z,99064.20
2022-12-04T13:50:48.106Z,99055.00
2022-12-04T13:53:45.561Z,99047.80
2022-12-04T13:56:43.291Z,99047.40
2022-12-04T13:59:40.867Z,99056.40
2022-12-04T14:02:38.653Z,99055.80
2022-12-04T14:05:36.197Z,99058.00
2022-12-04T14:08:38.023Z,99065.00
2022-12-04T14:11:36.372Z,99073.60
2022-12-04T14:14:34.491Z,99075.00
2022-12-04T14:17:31.986Z,99075.80
2022-12-04T14:20:30.177Z,99079.80
2022-12-04T14:23:27.791Z,99081.60
2022-12-04T14:26:48.805Z,99087.00
2022-12-04T14:29:45.013Z,99081.80
2022-12-04T14:32:43.020Z,99085.80
2022-12-04T14:35:40.710Z,99079.60
2022-12-04T14:38:39.861Z,99078.00
2022-12-04T14:41:38.223Z,99084.20
2022-12-04T14:44:39.237Z,99081.40
2022-12-04T14:47:37.712Z,99081.40
2022-12-04T14:50:35.241Z,99070.80
2022-12-04T14:53:33.524Z,99067.20
2022-12-04T14:56:31.413Z,99062.40
2022-12-04T14:59:29.719Z,99056.80
2022-12-04T15:02:27.270Z,99058.40
2022-12-04T15:05:25.758Z,99057.40
2022-12-04T15:08:23.979Z,99049.40
2022-12-04T15:11:39.031Z,99051.60
2022-12-04T15:14:37.532Z,99052.20
2022-12-04T15:17:39.544Z,99044.00
2022-12-04T15:20:40.930Z,99040.20
2022-12-04T15:23:39.347Z,99040.80
2022-12-04T15:26:37.547Z,99040.80
2022-12-04T15:29:36.136Z,99036.00
2022-12-04T15:32:34.183Z,99037.20
2022-12-04T15:35:32.950Z,99031.40
2022-12-04T15:38:31.463Z,99033.00
2022-12-04T15:41:34.757Z,99032.40
2022-12-04T15:44:32.749Z,99030.20
2022-12-04T15:47:31.411Z,99031.80
2022-12-04T15:50:30.011Z,99031.60
2022-12-04T15:53:28.526Z,99030.80
2022-12-04T15:56:26.083Z,99034.20
2022-12-04T15:59:24.225Z,99040.60
2022-12-04T16:02:22.335Z,99049.80
2022-12-04T16:05:20.823Z,99046.40
2022-12-04T16:08:21.899Z,99050.20
2022-12-04T16:11:21.209Z,99061.40
2022-12-04T16:14:20.605Z,99063.20
2022-12-04T16:17:25.952Z,99066.80
2022-12-04T16:20:24.570Z,99071.20
2022-12-04T16:23:23.017Z,99076.60
2022-12-04T16:26:21.574Z,99082.00
2022-12-04T16:29:20.268Z,99075.80
2022-12-04T16:32:18.820Z,99070.40
2022-12-04T16:35:17.544Z,99081.40
2022-12-04T16:38:16.047Z,99091.60
2022-12-04T16:41:14.956Z,99088.40
2022-12-04T16:44:13.802Z,99085.60
2022-12-04T16:47:12.488Z,99080.60
2022-12-04T16:50:11.080Z,99079.00
2022-12-04T16:53:09.694Z,99079.40
2022-12-04T16:56:07.711Z,99073.20
2022-12-04T16:59:11.561Z,99073.40
2022-12-04T17:02:10.909Z,99068.60
2022-12-04T17:05:08.954Z,99069.80
2022-12-04T17:08:08.510Z,99076.80
2022-12-04T17:11:08.309Z,99074.80
2022-12-04T17:14:07.549Z,99066.20
2022-12-04T17:17:05.887Z,99066.80
2022-12-04T17:20:04.651Z,99064.80
2022-12-04T17:23:03.447Z,99066.80
2022-12-04T17:26:03.689Z,99063.80
2022-12-04T17:29:02.780Z,99072.00
2022-12-04T17:32:00.655Z,99066.40
2022-12-04T17:35:02.391Z,99076.00
2022-12-04T17:38:05.947Z,99080.60
2022-12-04T17:41:04.750Z,99079.80
2022-12-04T17:44:04.933Z,99083.40
2022-12-04T17:47:03.486Z,99081.00
2022-12-04T17:50:02.151Z,99080.00
2022-12-04T17:53:00.744Z,99075.40
2022-12-04T17:55:58.891Z,99077.60
2022-12-04T17:58:57.417Z,99072.00
2022-12-04T18:01:55.489Z,99076.40
2022-12-04T18:04:54.024Z,99079.80
2022-12-04T18:07:52.111Z,99083.00
2022-12-04T18:10:49.975Z,99083.00
2022-12-04T18:13:49.587Z,99087.80
2022-12-04T18:16:47.807Z,99097.40
2022-12-04T18:19:46.755Z,99095.80
2022-12-04T18:22:44.550Z,99091.80
2022-12-04T18:25:43.145Z,99093.60
2022-12-04T18:28:41.250Z,99092.60
2022-12-04T18:31:40.416Z,99092.80
2022-12-04T18:34:39.597Z,99091.20
2022-12-04T18:37:38.460Z,99089.60
2022-12-04T18:40:36.601Z,99085.40
2022-12-04T18:43:37.946Z,99083.60
2022-12-04T18:46:38.627Z,99079.40
2022-12-04T18:49:36.826Z,99079.00
2022-12-04T18:52:34.799Z,99076.80
2022-12-04T18:55:33.866Z,99076.00
2022-12-04T18:58:33.494Z,99074.40
2022-12-04T19:01:33.150Z,99070.80
2022-12-04T19:04:31.987Z,99063.00
2022-12-04T19:07:30.624Z,99055.20
2022-12-04T19:10:31.539Z,99061.80
2022-12-04T19:13:30.721Z,99057.00
2022-12-04T19:16:29.835Z,99049.00
2022-12-04T19:19:31.555Z,99052.60
2022-12-04T19:22:30.118Z,99055.40
2022-12-04T19:25:29.780Z,99055.00
2022-12-04T19:28:29.353Z,99047.00
2022-12-04T19:31:28.892Z,99048.80
2022-12-04T19:34:27.117Z,99042.60
2022-12-04T19:37:25.909Z,99039.00
2022-12-04T19:40:24.368Z,99044.40
2022-12-04T19:43:23.031Z,99038.00
2022-12-04T19:46:22.067Z,99037.60
2022-12-04T19:49:21.276Z,99041.60
2022-12-04T19:52:19.909Z,99034.20
2022-12-04T19:55:23.306Z,99029.00
2022-12-04T19:58:22.932Z,99027.20
2022-12-04T20:01:21.995Z,99026.80
2022-12-04T20:04:20.907Z,99031.40
2022-12-04T20:07:21.947Z,99027.00
2022-12-04T20:10:22.965Z,99026.20
2022-12-04T20:13:22.838Z,99022.60
2022-12-04T20:16:21.828Z,99016.20
2022-12-04T20:19:19.886Z,99008.60
2022-12-04T20:22:18.637Z,99001.40
2022-12-04T20:25:17.366Z,98997.00
2022-12-04T20:28:15.414Z,98991.80
2022-12-04T20:31:14.420Z,98991.80
2022-12-04T20:34:14.084Z,99001.60
2022-12-04T20:37:13.527Z,99004.80
2022-12-04T20:40:12.326Z,98994.60
2022-12-04T20:43:18.976Z,98990.60
2022-12-04T20:46:21.644Z,98982.20
2022-12-04T20:49:22.385Z,98973.00
2022-12-04T20:52:24.633Z,98960.80
2022-12-04T20:55:24.591Z,98968.60
2022-12-04T20:58:23.766Z,98966.40
2022-12-04T21:01:21.929Z,98959.00
2022-12-04T21:04:20.617Z,98953.40
2022-12-04T21:07:18.398Z,98954.20
2022-12-04T21:10:16.883Z,98954.20
2022-12-04T21:13:31.710Z,98959.60
2022-12-04T21:16:29.951Z,98964.00
2022-12-04T21:19:28.971Z,98973.80
2022-12-04T21:22:26.545Z,98964.00
2022-12-04T21:25:25.486Z,98951.40
2022-12-04T21:28:23.095Z,98947.60
2022-12-04T21:31:20.588Z,98949.20
2022-12-04T21:34:18.451Z,98953.60
2022-12-04T21:37:16.014Z,98956.20
2022-12-04T21:40:13.467Z,98953.60
2022-12-04T21:43:10.932Z,98943.40
2022-12-04T21:46:09.530Z,98934.60
2022-12-04T21:49:07.201Z,98936.20
2022-12-04T21:52:04.639Z,98948.00
2022-12-04T21:55:02.115Z,98943.00
2022-12-04T21:57:59.554Z,98936.40
2022-12-04T22:00:57.010Z,98930.20
2022-12-04T22:03:54.516Z,98915.60
2022-12-04T22:06:51.959Z,98901.00
2022-12-04T22:09:49.416Z,98906.40
2022-12-04T22:12:50.738Z,98907.00
2022-12-04T22:15:48.462Z,98915.60
2022-12-04T22:18:45.923Z,98924.40
2022-12-04T22:21:43.369Z,98903.40
2022-12-04T22:24:41.733Z,98891.00
2022-12-04T22:27:39.198Z,98874.40
2022-12-04T22:30:36.966Z,98853.80
2022-12-04T22:33:34.441Z,98837.00
2022-12-04T22:36:31.960Z,98842.00
2022-12-04T22:39:29.423Z,98841.40
2022-12-04T22:42:26.900Z,98828.20
2022-12-04T22:45:24.580Z,98840.00
2022-12-04T22:48:22.047Z,98831.60
2022-12-04T22:51:19.535Z,98823.60
2022-12-04T22:54:16.998Z,98823.80
2022-12-04T22:57:14.449Z,98816.80
2022-12-04T23:00:12.552Z,98823.40
2022-12-04T23:03:10.120Z,98828.80
2022-12-04T23:06:07.650Z,98833.60
2022-12-04T23:09:05.123Z,98824.40
2022-12-04T23:12:02.593Z,98809.60
2022-12-04T23:15:00.054Z,98807.20
2022-12-04T23:17:57.523Z,98806.40
2022-12-04T23:20:55.077Z,98818.00
2022-12-04T23:23:52.531Z,98803.60
2022-12-04T23:26:49.996Z,98806.00
2022-12-04T23:29:54.952Z,98811.00
2022-12-04T23:32:52.421Z,98803.80
2022-12-04T23:35:49.885Z,98802.40
2022-12-04T23:38:47.361Z,98818.80
2022-12-04T23:41:44.801Z,98821.40
2022-12-04T23:44:42.279Z,98834.40
2022-12-04T23:47:39.727Z,98833.80
2022-12-04T23:50:37.232Z,98818.00
2022-12-04T23:53:34.730Z,98815.60
2022-12-04T23:56:32.656Z,98826.80
2022-12-04T23:59:30.115Z,98829.60
